Time;durP1;ratioP1;P1;durP2;ratioP2;P2;SDS_P1;SDS_P2;PMS_P1;PMS_P2;Temp;Humidity;BMP_temperature;BMP_pressure;BME280_temperature;BME280_humidity;BME280_pressure;Samples;Min_cycle;Max_cycle;Signal;HPM_P1;HPM_P2
2023/12/13 00:00:26;;;;;;;18.50;16.50;;;;;;;21.36;25.68;100391.06;104879;1306;67727;-89
2023/12/13 00:02:52;;;;;;;19.80;17.00;;;;;;;21.36;25.58;100395.36;104866;1305;67202;-89
2023/12/13 00:07:58;;;;;;;19.00;16.30;;;;;;;21.38;25.54;100392.64;105185;1306;74554;-89
2023/12/13 00:10:25;;;;;;;20.10;17.10;;;;;;;21.38;25.60;100396.89;104731;1307;67893;-88
2023/12/13 00:12:51;;;;;;;18.30;16.40;;;;;;;21.39;25.68;100396.38;104809;1308;68072;-89
2023/12/13 00:15:19;;;;;;;20.50;17.10;;;;;;;21.39;25.63;100394.80;104648;1307;67280;-88
2023/12/13 00:17:45;;;;;;;20.50;17.00;;;;;;;21.40;25.73;100394.95;104643;1299;67018;-88
2023/12/13 00:20:11;;;;;;;20.80;17.00;;;;;;;21.40;25.52;100387.63;104704;1307;67653;-88
2023/12/13 00:22:59;;;;;;;21.40;17.80;;;;;;;21.40;25.60;100383.79;104978;1308;80079;-88
2023/12/13 00:25:26;;;;;;;22.00;17.40;;;;;;;21.41;25.56;100386.75;104732;1305;67738;-88
2023/12/13 00:27:52;;;;;;;21.40;17.70;;;;;;;21.41;25.59;100387.30;104807;1307;66995;-88
2023/12/13 00:30:18;;;;;;;20.50;17.20;;;;;;;21.41;25.68;100391.15;105121;1305;67852;-88
2023/12/13 00:32:44;;;;;;;20.60;16.90;;;;;;;21.41;25.67;100395.71;105029;1306;67686;-88
2023/12/13 00:37:53;;;;;;;22.10;18.00;;;;;;;21.42;25.57;100393.87;104865;1307;309399;-88
2023/12/13 00:40:22;;;;;;;20.40;16.90;;;;;;;21.42;25.58;100394.84;104792;1308;67654;-88
2023/12/13 00:42:48;;;;;;;21.80;17.40;;;;;;;21.43;25.62;100393.51;104770;1308;67934;-88
2023/12/13 00:45:14;;;;;;;23.90;18.30;;;;;;;21.43;25.61;100387.87;105148;1307;67201;-87
2023/12/13 00:47:41;;;;;;;21.90;17.40;;;;;;;21.43;25.65;100395.03;104852;1299;67779;-87
2023/12/13 00:52:54;;;;;;;20.70;16.40;;;;;;;21.43;25.67;100396.36;105010;1307;67613;-87
2023/12/13 00:55:21;;;;;;;19.80;16.70;;;;;;;21.44;25.64;100392.21;104831;1307;67795;-88
2023/12/13 00:57:46;;;;;;;22.40;17.30;;;;;;;21.44;25.58;100389.09;104868;1308;66913;-87
2023/12/13 01:00:14;;;;;;;21.40;17.00;;;;;;;21.44;25.62;100388.62;104927;1308;67195;-88
2023/12/13 01:02:40;;;;;;;20.20;17.00;;;;;;;21.45;25.61;100384.48;105157;1308;67378;-89
2023/12/13 01:07:49;;;;;;;20.30;16.40;;;;;;;21.45;25.54;100370.03;105477;1308;67037;-88
2023/12/13 01:10:15;;;;;;;21.30;16.60;;;;;;;21.45;25.56;100365.23;105154;1307;67120;-88
2023/12/13 01:12:43;;;;;;;21.20;16.30;;;;;;;21.45;25.67;100362.71;104861;1308;67106;-88
2023/12/13 01:15:12;;;;;;;20.80;16.80;;;;;;;21.46;25.55;100354.16;104884;1308;71011;-88
2023/12/13 01:17:38;;;;;;;20.50;17.30;;;;;;;21.46;25.65;100352.94;104945;1308;67589;-88
2023/12/13 01:22:45;;;;;;;20.80;17.10;;;;;;;21.48;25.62;100349.91;105114;1308;74377;-88
2023/12/13 01:25:11;;;;;;;22.10;17.40;;;;;;;21.47;25.50;100343.52;104890;1306;67679;-88
2023/12/13 01:27:37;;;;;;;23.20;17.80;;;;;;;21.48;25.53;100343.31;104866;1308;67669;-88
2023/12/13 01:30:03;;;;;;;22.40;17.50;;;;;;;21.48;25.65;100339.11;104719;1308;67756;-88
2023/12/13 01:32:29;;;;;;;20.70;17.00;;;;;;;21.49;25.64;100329.29;104706;1308;67787;-88
2023/12/13 01:34:55;;;;;;;19.80;17.20;;;;;;;21.49;25.56;100326.52;104688;1308;67643;-88
2023/12/13 01:37:21;;;;;;;21.80;17.40;;;;;;;21.49;25.44;100324.73;104782;1308;67698;-88
2023/12/13 01:39:46;;;;;;;21.70;16.80;;;;;;;21.50;25.70;100318.90;104735;1308;67699;-88
2023/12/13 01:42:12;;;;;;;20.90;17.00;;;;;;;21.50;25.63;100308.65;104775;1308;67632;-88
2023/12/13 01:44:38;;;;;;;21.20;17.50;;;;;;;21.51;25.61;100304.76;104746;1308;68641;-88
2023/12/13 01:47:08;;;;;;;23.60;17.70;;;;;;;21.51;25.58;100303.94;104750;1307;67862;-90
2023/12/13 01:49:34;;;;;;;22.20;18.40;;;;;;;21.51;25.55;100306.59;104915;1308;72434;-88
2023/12/13 01:52:00;;;;;;;21.60;18.00;;;;;;;21.51;25.56;100305.47;104841;1308;68782;-88
2023/12/13 01:54:26;;;;;;;22.00;18.10;;;;;;;21.51;25.64;100307.16;104685;1308;67837;-88
2023/12/13 01:56:52;;;;;;;15.80;13.60;;;;;;;21.52;25.49;100309.51;104689;1308;67073;-88
2023/12/13 01:59:18;;;;;;;21.90;17.50;;;;;;;21.52;25.53;100312.85;104558;1299;67708;-87
2023/12/13 02:01:43;;;;;;;21.50;17.00;;;;;;;21.52;25.62;100323.23;104627;1309;67745;-87
2023/12/13 02:04:12;;;;;;;21.00;17.70;;;;;;;21.53;25.54;100327.53;104749;1308;67018;-87
2023/12/13 02:06:38;;;;;;;22.80;17.60;;;;;;;21.53;25.53;100336.53;104706;1308;73360;-87
2023/12/13 02:09:04;;;;;;;22.40;18.30;;;;;;;21.53;25.55;100335.15;104873;1307;67851;-88
2023/12/13 02:11:30;;;;;;;21.10;18.10;;;;;;;21.53;25.52;100338.52;104854;1305;67689;-87
2023/12/13 02:14:05;;;;;;;21.10;17.50;;;;;;;21.53;25.38;100343.45;104752;1307;67650;-90
2023/12/13 02:16:32;;;;;;;22.50;18.60;;;;;;;21.53;25.47;100348.98;104871;1307;67731;-88
2023/12/13 02:18:58;;;;;;;21.70;17.30;;;;;;;21.53;25.40;100341.81;104721;1307;74707;-88
2023/12/13 02:21:24;;;;;;;20.00;17.30;;;;;;;21.53;25.51;100340.53;104851;1308;67770;-88
2023/12/13 02:23:51;;;;;;;21.00;17.50;;;;;;;21.53;25.35;100329.27;104707;1307;67751;-87
2023/12/13 02:26:17;;;;;;;22.70;17.80;;;;;;;21.54;25.33;100326.40;104664;1300;67868;-87
2023/12/13 02:28:43;;;;;;;20.30;17.50;;;;;;;21.54;25.37;100324.44;104715;1308;67338;-88
2023/12/13 02:31:09;;;;;;;19.90;17.00;;;;;;;21.54;25.40;100324.30;105168;1304;67075;-87
2023/12/13 02:33:36;;;;;;;19.50;16.40;;;;;;;21.54;25.31;100327.98;105018;1308;67120;-87
2023/12/13 02:36:03;;;;;;;19.70;16.90;;;;;;;21.54;25.30;100322.92;104858;1308;67029;-88
2023/12/13 02:38:29;;;;;;;20.30;17.40;;;;;;;21.55;25.35;100322.95;104965;1308;67013;-87
2023/12/13 02:40:58;;;;;;;20.50;17.10;;;;;;;21.54;25.30;100322.52;104964;1307;67170;-90
2023/12/13 02:43:24;;;;;;;18.70;16.40;;;;;;;21.55;25.12;100326.54;105101;1307;74475;-87
2023/12/13 02:45:50;;;;;;;19.70;17.20;;;;;;;21.55;25.21;100323.11;105116;1307;67123;-87
2023/12/13 02:48:16;;;;;;;19.30;16.70;;;;;;;21.55;25.24;100320.09;104846;1307;67694;-88
2023/12/13 02:50:41;;;;;;;20.50;16.90;;;;;;;21.55;25.19;100320.23;104841;1308;67611;-88
2023/12/13 02:53:07;;;;;;;20.60;17.00;;;;;;;21.55;25.17;100317.84;104963;1299;68722;-87
2023/12/13 02:55:33;;;;;;;19.60;16.70;;;;;;;21.56;25.21;100311.38;104854;1309;67587;-87
2023/12/13 02:58:00;;;;;;;20.00;16.60;;;;;;;21.56;25.04;100307.64;104875;1308;67810;-87
2023/12/13 03:00:26;;;;;;;18.20;16.20;;;;;;;21.56;25.25;100297.81;104965;1308;67137;-87
2023/12/13 03:02:52;;;;;;;19.00;16.20;;;;;;;21.56;24.95;100293.98;104734;1308;67668;-87
2023/12/13 03:05:20;;;;;;;18.30;16.00;;;;;;;21.56;25.18;100300.33;104635;1308;67088;-89
2023/12/13 03:10:30;;;;;;;16.70;14.80;;;;;;;21.57;25.18;100289.02;105124;1308;73470;-88
2023/12/13 03:12:56;;;;;;;17.20;15.20;;;;;;;21.56;25.14;100287.11;104952;1302;67718;-88
2023/12/13 03:15:22;;;;;;;16.70;14.90;;;;;;;21.57;24.95;100292.42;104807;1309;67142;-88
2023/12/13 03:17:48;;;;;;;16.60;14.80;;;;;;;21.57;25.05;100294.98;104826;1308;67791;-88
2023/12/13 03:20:17;;;;;;;17.10;14.80;;;;;;;21.58;24.99;100293.77;104712;1307;67817;-88
2023/12/13 03:25:22;;;;;;;17.70;14.70;;;;;;;21.58;25.00;100285.63;105362;1305;67672;-88
2023/12/13 03:27:48;;;;;;;16.20;14.00;;;;;;;21.58;25.00;100294.06;104879;1305;67618;-88
2023/12/13 03:30:14;;;;;;;17.80;14.50;;;;;;;21.59;25.00;100290.63;104636;1304;67799;-88
2023/12/13 03:32:43;;;;;;;16.60;14.60;;;;;;;21.59;24.91;100280.40;104643;1308;67499;-88
2023/12/13 03:35:08;;;;;;;18.00;15.00;;;;;;;21.59;25.00;100273.73;104681;1309;72528;-88
2023/12/13 03:40:14;;;;;;;17.50;14.70;;;;;;;21.60;24.89;100262.13;104908;1307;67615;-88
2023/12/13 03:42:40;;;;;;;16.90;14.90;;;;;;;21.60;25.13;100264.92;104725;1308;67111;-88
2023/12/13 03:45:07;;;;;;;19.80;14.90;;;;;;;21.61;25.10;100259.42;104869;1308;67630;-88
2023/12/13 03:47:33;;;;;;;17.90;15.20;;;;;;;21.62;24.89;100252.45;104883;1307;67717;-88
2023/12/13 03:49:58;;;;;;;27.40;16.00;;;;;;;21.62;24.99;100252.77;104861;1309;67831;-88
2023/12/13 03:52:24;;;;;;;21.40;16.00;;;;;;;21.61;25.06;100255.07;104850;1308;67072;-88
2023/12/13 03:54:50;;;;;;;26.20;17.30;;;;;;;21.60;25.10;100260.73;104638;1308;68754;-89
2023/12/13 03:57:17;;;;;;;22.50;16.00;;;;;;;21.61;25.11;100265.26;104746;1308;67942;-89
2023/12/13 03:59:43;;;;;;;39.30;17.00;;;;;;;21.63;25.07;100259.21;104716;1307;68328;-88
2023/12/13 04:02:10;;;;;;;51.30;18.10;;;;;;;21.63;24.99;100255.89;104939;1306;67174;-88
2023/12/13 04:04:43;;;;;;;48.80;18.30;;;;;;;21.64;24.97;100246.92;105223;1299;67553;31
2023/12/13 04:07:10;;;;;;;30.80;15.30;;;;;;;21.65;25.02;100245.07;105102;1307;84202;-89
2023/12/13 04:09:37;;;;;;;28.80;15.00;;;;;;;21.66;25.35;100242.71;104497;1308;73419;-89
2023/12/13 04:12:04;;;;;;;29.30;15.40;;;;;;;21.68;25.68;100245.05;104708;1306;67693;-88
2023/12/13 04:14:30;;;;;;;25.60;14.90;;;;;;;21.71;26.02;100246.96;104786;1307;67861;-88
2023/12/13 04:17:14;;;;;;;30.50;15.30;;;;;;;21.74;26.26;100246.48;105209;1305;67817;-89
2023/12/13 04:19:40;;;;;;;22.40;14.30;;;;;;;21.78;26.41;100246.05;105306;1299;83088;-88
2023/12/13 04:22:06;;;;;;;28.50;15.80;;;;;;;21.81;26.55;100236.60;105237;1307;67800;-88
2023/12/13 04:24:33;;;;;;;26.40;15.30;;;;;;;21.83;26.66;100240.22;104780;1307;67991;-89
2023/12/13 04:27:00;;;;;;;33.90;16.60;;;;;;;21.86;26.48;100242.57;104828;1305;67722;-89
2023/12/13 04:29:26;;;;;;;32.10;16.20;;;;;;;21.87;26.69;100244.50;105175;1306;74368;-88
2023/12/13 04:31:52;;;;;;;40.20;17.10;;;;;;;21.89;26.80;100237.16;104702;1305;67087;-88
2023/12/13 04:34:36;;;;;;;39.30;17.40;;;;;;;21.90;26.88;100235.20;104707;1305;67666;-88
2023/12/13 04:37:02;;;;;;;43.20;19.60;;;;;;;21.90;26.64;100235.67;104981;1307;67856;-88
2023/12/13 04:39:28;;;;;;;47.60;20.60;;;;;;;21.88;26.62;100240.92;104637;1308;67693;-88
2023/12/13 04:41:54;;;;;;;40.00;20.20;;;;;;;21.85;26.69;100230.84;104406;1308;67407;-88
2023/12/13 04:44:20;;;;;;;37.00;21.90;;;;;;;21.80;26.61;100229.85;104399;1308;67894;-88
2023/12/13 04:46:46;;;;;;;35.10;21.50;;;;;;;21.74;26.98;100231.17;104451;1308;67742;-87
2023/12/13 04:49:11;;;;;;;83.60;24.90;;;;;;;21.65;26.90;100236.95;104475;1310;67949;-87
2023/12/13 04:51:37;;;;;;;53.60;24.90;;;;;;;21.41;26.67;100235.14;104716;1309;67134;-88
2023/12/13 04:54:03;;;;;;;55.20;25.10;;;;;;;21.06;26.67;100239.09;104329;1308;83676;-88
2023/12/13 04:56:28;;;;;;;41.30;25.80;;;;;;;20.70;26.82;100235.86;104540;1308;67215;-88
2023/12/13 04:58:54;;;;;;;35.70;24.90;;;;;;;20.36;27.02;100236.48;104477;1302;67626;-89
2023/12/13 05:01:29;;;;;;;35.20;24.90;;;;;;;20.06;27.13;100239.11;104581;1307;67283;-93
2023/12/13 05:03:55;;;;;;;35.90;25.40;;;;;;;19.76;27.40;100245.90;104713;1306;74627;-89
2023/12/13 05:06:21;;;;;;;36.20;24.50;;;;;;;19.48;27.37;100248.29;104886;1305;67161;-89
2023/12/13 05:08:46;;;;;;;33.90;24.30;;;;;;;19.21;27.63;100249.56;104773;1307;67686;-89
2023/12/13 05:11:12;;;;;;;40.70;23.40;;;;;;;19.01;27.83;100252.61;104786;1305;68512;-88
2023/12/13 05:13:38;;;;;;;36.30;21.90;;;;;;;19.01;27.99;100252.50;104618;1305;67442;-89
2023/12/13 05:16:04;;;;;;;41.10;20.70;;;;;;;19.10;28.07;100246.73;104810;1305;67883;-89
2023/12/13 05:18:30;;;;;;;32.70;21.00;;;;;;;19.21;28.13;100237.23;104561;1308;67271;-87
2023/12/13 05:20:56;;;;;;;30.90;20.80;;;;;;;19.30;28.20;100233.94;104379;1309;68533;-88
2023/12/13 05:23:21;;;;;;;39.50;20.90;;;;;;;19.39;28.19;100235.20;104471;1309;67888;-87
2023/12/13 05:25:47;;;;;;;34.00;20.40;;;;;;;19.46;28.20;100234.61;104411;1309;68338;-87
2023/12/13 05:28:22;;;;;;;36.40;20.50;;;;;;;19.54;28.15;100231.60;104232;1317;67408;-92
2023/12/13 05:30:48;;;;;;;36.60;20.50;;;;;;;19.61;28.09;100233.36;104437;1309;72397;-88
2023/12/13 06:20:41;;;;;;;34.30;20.50;;;;;;;20.12;27.49;100201.34;98049;1304;68508;-90
2023/12/13 09:19:13;;;;;;;75.30;19.30;;;;;;;21.33;27.85;100034.73;93459;1306;68419;-90
2023/12/13 09:43:48;;;;;;;141.80;20.40;;;;;;;21.46;27.53;99990.85;92448;1304;73714;-90
2023/12/13 09:46:17;;;;;;;173.40;21.20;;;;;;;21.50;27.64;99981.86;104737;1308;83196;-89
2023/12/13 09:49:04;;;;;;;136.30;19.60;;;;;;;21.53;27.78;99980.15;104631;1302;72969;-91
